createdAt,value
2023-01-09T00:02:12.966Z,6.35
2023-01-09T00:17:15.392Z,6.03
2023-01-09T00:32:17.699Z,5.88
2023-01-09T00:47:19.911Z,6.1
2023-01-09T01:02:22.395Z,5.97
2023-01-09T01:17:25.122Z,5.96
2023-01-09T01:32:27.488Z,5.93
2023-01-09T01:47:29.905Z,5.91
2023-01-09T02:02:32.584Z,5.84
2023-01-09T02:17:34.991Z,5.65
2023-01-09T02:32:37.379Z,5.65
2023-01-09T02:47:39.736Z,5.74
2023-01-09T03:02:42.176Z,6.1
2023-01-09T03:17:44.642Z,5.95
2023-01-09T03:32:46.947Z,5.66
2023-01-09T03:47:49.723Z,5.49
2023-01-09T04:02:53.536Z,5.75
2023-01-09T04:17:55.869Z,5.73
2023-01-09T04:32:58.268Z,5.6
2023-01-09T04:48:00.930Z,5.53
2023-01-09T05:03:03.220Z,5.56
2023-01-09T05:18:05.525Z,5.44
2023-01-09T05:33:07.912Z,5.56
2023-01-09T05:48:10.328Z,5.23
2023-01-09T06:03:12.696Z,5.37
2023-01-09T06:18:15.346Z,5.59
2023-01-09T06:33:17.672Z,5.31
2023-01-09T06:48:20.047Z,5.4
2023-01-09T07:03:22.394Z,5.44
2023-01-09T07:18:24.815Z,5.4
2023-01-09T07:33:27.146Z,5.51
2023-01-09T07:48:29.720Z,5.2
2023-01-09T08:03:32.213Z,5.33
2023-01-09T08:18:34.506Z,5.47
2023-01-09T08:33:37.739Z,5.46
2023-01-09T08:48:41.025Z,5.61
2023-01-09T09:03:43.363Z,5.6
2023-01-09T09:18:45.631Z,5.48
2023-01-09T09:33:47.960Z,5.38
2023-01-09T09:48:50.262Z,5.49
2023-01-09T10:03:52.691Z,5.49
2023-01-09T10:18:55.088Z,5.45
2023-01-09T10:33:57.453Z,5.56
2023-01-09T10:48:59.735Z,5.5
2023-01-09T11:04:02.143Z,5.31
2023-01-09T11:19:04.557Z,5.36
2023-01-09T11:34:06.823Z,5.52
2023-01-09T11:49:09.167Z,5.2
2023-01-09T12:04:11.570Z,5.56
2023-01-09T12:19:15.298Z,5.43
2023-01-09T12:34:17.625Z,5.3
2023-01-09T12:49:19.890Z,5.39
2023-01-09T13:04:22.200Z,5.61
2023-01-09T13:19:24.558Z,5.33
2023-01-09T13:34:26.995Z,5.2
2023-01-09T13:49:29.321Z,5.35
2023-01-09T14:04:31.588Z,5.3
2023-01-09T14:19:33.950Z,4.83
2023-01-09T14:34:36.304Z,5.29
2023-01-09T14:49:38.610Z,5.24
2023-01-09T15:04:40.968Z,5.04
2023-01-09T15:19:43.359Z,4.99
2023-01-09T15:34:45.670Z,5.29
2023-01-09T15:49:47.969Z,5.56
2023-01-09T16:04:50.328Z,5.46
2023-01-09T16:19:52.834Z,4.97
2023-01-09T16:34:55.130Z,5.39
2023-01-09T16:49:57.477Z,5.33
2023-01-09T17:04:59.828Z,5.04
2023-01-09T17:20:02.132Z,5.76
2023-01-09T17:35:04.486Z,5.64
2023-01-09T17:50:06.869Z,5.98
2023-01-09T18:05:09.351Z,6.04
2023-01-09T18:20:11.679Z,6.41
2023-01-09T18:35:14.115Z,6.86
2023-01-09T18:50:16.709Z,7.41
2023-01-09T19:05:19.094Z,6.18
2023-01-09T19:20:21.340Z,6.18
2023-01-09T19:35:23.776Z,6.5
2023-01-09T19:50:26.264Z,6.58
2023-01-09T20:05:28.853Z,7.33
2023-01-09T20:20:31.183Z,7.21
2023-01-09T20:35:33.558Z,7.45
2023-01-09T20:50:35.982Z,7.39
2023-01-09T21:05:38.323Z,6.86
2023-01-09T21:20:40.712Z,6.18
2023-01-09T21:35:43.050Z,6.65
2023-01-09T21:50:45.420Z,6.85
2023-01-09T22:05:47.734Z,7.13
2023-01-09T22:20:49.980Z,6.6
2023-01-09T22:35:52.314Z,6.7
2023-01-09T22:50:54.705Z,6.86
2023-01-09T23:05:56.976Z,7.13
2023-01-09T23:20:59.453Z,6.98
2023-01-09T23:36:01.802Z,6.25
2023-01-09T23:51:04.097Z,5.82
